Time;durP1;ratioP1;P1;durP2;ratioP2;P2;SDS_P1;SDS_P2;PMS_P1;PMS_P2;Temp;Humidity;BMP_temperature;BMP_pressure;BME280_temperature;BME280_humidity;BME280_pressure;Samples;Min_cycle;Max_cycle;Signal;HPM_P1;HPM_P2
2022/10/18 00:01:04;;;;;;;13.52;9.85;;;16.50;99.90;;;;;;5062094;28;20028;-85
2022/10/18 00:03:30;;;;;;;15.07;9.40;;;16.50;99.90;;;;;;5073336;28;20316;-85
2022/10/18 00:05:56;;;;;;;15.32;9.50;;;16.50;99.90;;;;;;5066304;28;20056;-85
2022/10/18 00:08:22;;;;;;;15.57;9.90;;;16.50;99.90;;;;;;5063596;28;20012;-85
2022/10/18 00:10:48;;;;;;;17.40;11.45;;;16.50;99.90;;;;;;5062386;28;20020;-85
2022/10/18 00:13:14;;;;;;;18.23;10.75;;;16.40;99.90;;;;;;5066827;28;20005;-85
2022/10/18 00:15:47;;;;;;;16.27;10.98;;;16.40;99.90;;;;;;5075879;28;20328;-85
2022/10/18 00:18:13;;;;;;;13.70;10.70;;;16.40;99.90;;;;;;5068837;28;20019;-85
2022/10/18 00:20:38;;;;;;;14.32;11.48;;;16.40;99.90;;;;;;5067880;28;20056;-85
2022/10/18 00:23:04;;;;;;;15.43;10.50;;;16.40;99.90;;;;;;5066329;28;20374;-85
2022/10/18 00:25:30;;;;;;;14.02;10.57;;;16.50;99.90;;;;;;5062629;28;20142;-85
2022/10/18 00:27:55;;;;;;;18.40;11.07;;;16.40;99.90;;;;;;5064894;28;20017;-85
2022/10/18 00:30:21;;;;;;;12.32;9.90;;;16.50;99.90;;;;;;5066749;28;20012;-85
2022/10/18 00:32:47;;;;;;;13.68;10.25;;;16.40;99.90;;;;;;5065412;28;20029;-85
2022/10/18 00:35:12;;;;;;;13.27;9.73;;;16.40;99.90;;;;;;5062443;28;20062;-85
2022/10/18 00:37:38;;;;;;;18.92;10.82;;;16.40;99.90;;;;;;5066007;28;20031;-85
2022/10/18 00:40:04;;;;;;;16.63;10.07;;;16.40;99.90;;;;;;5073237;28;20041;-85
2022/10/18 00:42:33;;;;;;;13.63;10.02;;;16.40;99.90;;;;;;5071083;28;20031;-85
2022/10/18 00:45:06;;;;;;;13.05;9.15;;;16.40;99.90;;;;;;5071376;28;20107;-85
2022/10/18 00:47:34;;;;;;;15.07;10.25;;;16.40;99.90;;;;;;5068074;28;20112;-85
2022/10/18 00:50:03;;;;;;;16.42;10.00;;;16.30;99.90;;;;;;5065135;28;20328;-85
2022/10/18 00:52:35;;;;;;;13.38;10.02;;;16.30;99.90;;;;;;5076210;28;20087;-85
2022/10/18 00:55:02;;;;;;;11.35;9.35;;;16.30;99.90;;;;;;5070717;28;20021;-85
2022/10/18 00:57:28;;;;;;;15.70;9.80;;;16.30;99.90;;;;;;5063073;28;20021;-85
2022/10/18 00:59:54;;;;;;;12.88;9.48;;;16.30;99.90;;;;;;5060382;28;20100;-85
2022/10/18 01:02:20;;;;;;;14.93;9.07;;;16.30;99.90;;;;;;5061084;28;20355;-85
2022/10/18 01:04:46;;;;;;;14.07;10.35;;;16.30;99.90;;;;;;5070442;28;20244;-85
2022/10/18 01:07:21;;;;;;;13.65;9.80;;;16.20;99.90;;;;;;5073896;28;20028;-85
2022/10/18 01:10:17;;;;;;;14.82;9.73;;;16.20;99.90;;;;;;5062321;28;20032;-85
2022/10/18 01:12:49;;;;;;;12.02;9.20;;;16.20;99.90;;;;;;5070883;28;20335;-85
2022/10/18 01:15:35;;;;;;;11.85;9.48;;;16.10;99.90;;;;;;5070531;28;20047;-85
2022/10/18 01:18:07;;;;;;;14.18;9.82;;;16.10;99.90;;;;;;5064945;28;20294;-85
2022/10/18 01:20:55;;;;;;;14.68;10.45;;;16.10;99.90;;;;;;5074127;28;20077;-85
2022/10/18 01:23:48;;;;;;;12.88;8.98;;;16.10;99.90;;;;;;5075081;28;20025;-85
2022/10/18 01:26:47;;;;;;;12.20;9.85;;;16.20;99.90;;;;;;5067593;28;20017;-85
2022/10/18 01:29:37;;;;;;;12.70;9.45;;;16.10;99.90;;;;;;5066864;28;20040;-85
2022/10/18 01:32:09;;;;;;;14.20;10.10;;;16.20;99.90;;;;;;5074911;28;20111;-85
2022/10/18 01:34:37;;;;;;;14.70;10.32;;;16.10;99.90;;;;;;5062842;28;20099;-85
2022/10/18 01:37:08;;;;;;;12.80;9.45;;;16.10;99.90;;;;;;5070586;28;20024;-85
2022/10/18 01:39:37;;;;;;;14.63;9.35;;;16.10;99.90;;;;;;5077266;28;20122;-85
2022/10/18 01:42:07;;;;;;;10.98;9.15;;;16.10;99.90;;;;;;5076580;28;20016;-85
2022/10/18 01:44:35;;;;;;;14.40;9.40;;;16.10;99.90;;;;;;5070207;28;20024;-85
2022/10/18 01:47:03;;;;;;;12.85;10.27;;;16.10;99.90;;;;;;5069739;28;20289;-85
2022/10/18 01:49:28;;;;;;;12.35;8.75;;;16.10;99.90;;;;;;5072740;28;20059;-85
2022/10/18 01:51:54;;;;;;;10.93;9.13;;;16.10;99.90;;;;;;5070215;28;20032;-85
2022/10/18 01:54:26;;;;;;;10.93;8.75;;;16.10;99.90;;;;;;5064409;28;20309;-85
2022/10/18 01:56:57;;;;;;;12.77;9.07;;;16.10;99.90;;;;;;5067741;28;20558;-85
2022/10/18 02:00:05;;;;;;;13.40;8.60;;;16.10;99.90;;;;;;5069084;28;20326;-85
2022/10/18 02:02:52;;;;;;;11.43;9.10;;;16.10;99.90;;;;;;5065377;28;20035;-85
2022/10/18 02:05:27;;;;;;;14.10;7.82;;;16.00;99.90;;;;;;5069245;28;20017;-85
2022/10/18 02:08:03;;;;;;;11.32;8.30;;;16.10;99.90;;;;;;5072171;28;20465;-85
2022/10/18 02:10:42;;;;;;;11.95;8.40;;;16.10;99.90;;;;;;5066100;28;20308;-85
2022/10/18 02:13:11;;;;;;;14.10;8.65;;;16.00;99.90;;;;;;5062880;28;20101;-85
2022/10/18 02:15:40;;;;;;;11.85;9.27;;;16.00;99.90;;;;;;5069095;28;20028;-85
2022/10/18 02:18:11;;;;;;;10.30;8.15;;;16.00;99.90;;;;;;5072256;28;20162;-85
2022/10/18 02:20:37;;;;;;;14.70;8.93;;;16.00;99.90;;;;;;5066659;28;20039;-85
2022/10/18 02:23:06;;;;;;;11.88;8.48;;;16.00;99.90;;;;;;5070158;28;19908;-85
2022/10/18 02:25:33;;;;;;;12.02;8.68;;;16.00;99.90;;;;;;5072388;28;20039;-85
2022/10/18 02:28:00;;;;;;;12.88;8.93;;;16.10;99.90;;;;;;5064187;28;20325;-85
2022/10/18 02:30:44;;;;;;;12.90;8.68;;;16.10;99.90;;;;;;5066651;28;20017;-85
2022/10/18 02:33:32;;;;;;;10.75;8.80;;;16.10;99.90;;;;;;5071275;28;20104;-85
2022/10/18 02:36:11;;;;;;;10.73;8.85;;;16.00;99.90;;;;;;5065345;28;20347;-85
2022/10/18 02:38:39;;;;;;;14.43;8.45;;;16.10;99.90;;;;;;5062711;28;20024;-85
2022/10/18 02:41:04;;;;;;;12.35;8.85;;;16.10;99.90;;;;;;5069583;28;20088;-85
2022/10/18 02:43:30;;;;;;;12.90;8.32;;;16.00;99.90;;;;;;5069598;28;20139;-85
2022/10/18 02:45:56;;;;;;;11.90;8.38;;;16.00;99.90;;;;;;5067480;28;20020;-85
2022/10/18 02:48:21;;;;;;;10.68;7.93;;;16.00;99.90;;;;;;5066553;28;20063;-85
2022/10/18 02:50:47;;;;;;;12.98;7.90;;;16.00;99.90;;;;;;5068795;28;20035;-85
2022/10/18 02:53:13;;;;;;;13.25;8.02;;;16.00;99.90;;;;;;5063684;28;20047;-85
2022/10/18 02:55:38;;;;;;;11.05;8.05;;;16.00;99.90;;;;;;5074773;28;20069;-85
2022/10/18 02:58:04;;;;;;;10.68;8.27;;;16.00;99.90;;;;;;5064108;28;20028;-85
2022/10/18 03:00:30;;;;;;;11.80;8.27;;;16.00;99.90;;;;;;5063891;28;20084;-85
2022/10/18 03:02:55;;;;;;;14.90;8.18;;;16.00;99.90;;;;;;5061913;28;20100;-85
2022/10/18 03:05:21;;;;;;;11.82;8.65;;;16.00;99.90;;;;;;5064113;28;20017;-85
2022/10/18 03:07:46;;;;;;;16.75;8.82;;;16.00;99.90;;;;;;5066704;28;20028;-85
2022/10/18 03:10:12;;;;;;;11.95;8.70;;;16.00;99.90;;;;;;5062903;28;20017;-85
2022/10/18 03:12:38;;;;;;;15.45;8.25;;;16.00;99.90;;;;;;5063671;28;20021;-85
2022/10/18 03:15:04;;;;;;;15.18;8.88;;;16.00;99.90;;;;;;5068396;28;20024;-85
2022/10/18 03:17:29;;;;;;;14.98;8.10;;;16.00;99.90;;;;;;5076045;28;20021;-85
2022/10/18 03:19:55;;;;;;;15.80;9.55;;;16.00;99.90;;;;;;5076350;28;20093;-85
2022/10/18 03:22:21;;;;;;;9.73;8.60;;;16.00;99.90;;;;;;5075440;28;20029;-85
2022/10/18 03:24:46;;;;;;;10.68;8.40;;;16.00;99.90;;;;;;5066455;28;20021;-85
2022/10/18 03:27:12;;;;;;;10.48;7.90;;;16.00;99.90;;;;;;5066307;28;20028;-85
2022/10/18 03:29:37;;;;;;;11.10;8.93;;;16.00;99.90;;;;;;5066596;28;20032;-85
2022/10/18 03:32:03;;;;;;;11.57;7.95;;;16.00;99.90;;;;;;5065973;28;20048;-85
2022/10/18 03:34:29;;;;;;;12.35;9.05;;;16.00;99.90;;;;;;5065836;28;20050;-85
2022/10/18 03:36:56;;;;;;;9.68;8.68;;;15.90;99.90;;;;;;5059631;28;20044;-86
2022/10/18 03:39:21;;;;;;;11.68;8.30;;;15.90;99.90;;;;;;5060240;28;20316;-85
2022/10/18 03:41:47;;;;;;;14.18;9.20;;;15.90;99.90;;;;;;5070405;28;20111;-85
2022/10/18 03:44:13;;;;;;;14.35;8.95;;;15.90;99.90;;;;;;5066121;28;20090;-85
2022/10/18 03:46:38;;;;;;;16.75;8.85;;;15.90;99.90;;;;;;5066107;28;20024;-85
2022/10/18 03:49:04;;;;;;;15.27;8.82;;;15.90;99.90;;;;;;5070834;28;20044;-85
2022/10/18 03:51:30;;;;;;;18.55;9.70;;;15.90;99.90;;;;;;5070428;28;20028;-85
2022/10/18 03:53:55;;;;;;;15.73;9.05;;;15.90;99.90;;;;;;5067902;28;20028;-88
2022/10/18 03:56:21;;;;;;;18.92;9.25;;;15.90;99.90;;;;;;5064364;28;20201;-85
2022/10/18 03:58:46;;;;;;;13.93;9.23;;;15.90;99.90;;;;;;5063007;28;20075;-85
2022/10/18 04:01:12;;;;;;;14.07;9.90;;;15.80;99.90;;;;;;5064794;28;20240;-86
2022/10/18 04:03:38;;;;;;;12.65;8.98;;;15.80;99.90;;;;;;5067643;28;20088;-85
2022/10/18 04:06:03;;;;;;;14.50;9.90;;;15.80;99.90;;;;;;5080655;28;20082;-85
2022/10/18 04:08:29;;;;;;;12.27;9.43;;;15.80;99.90;;;;;;5063703;28;20025;-86
2022/10/18 04:10:55;;;;;;;15.98;9.95;;;15.80;99.90;;;;;;5064971;28;20387;-86
2022/10/18 04:13:21;;;;;;;13.55;8.88;;;15.70;99.90;;;;;;5074979;28;20013;-85
2022/10/18 04:15:47;;;;;;;12.45;10.02;;;15.80;99.90;;;;;;5061460;28;20017;-85
2022/10/18 04:18:12;;;;;;;12.82;9.48;;;15.80;99.90;;;;;;5069333;28;20021;-85
2022/10/18 04:20:38;;;;;;;15.27;10.15;;;15.80;99.90;;;;;;5068102;28;20325;-88
2022/10/18 04:23:03;;;;;;;16.20;10.57;;;15.80;99.90;;;;;;5067553;28;20032;-86
2022/10/18 04:25:29;;;;;;;27.15;9.93;;;15.80;99.90;;;;;;5064626;28;20035;-85
2022/10/18 04:27:55;;;;;;;14.93;9.98;;;15.80;99.90;;;;;;5064310;28;20088;-85
2022/10/18 04:30:20;;;;;;;12.75;10.18;;;15.80;99.90;;;;;;5076019;28;20027;-85
2022/10/18 04:32:46;;;;;;;14.82;10.90;;;15.80;99.90;;;;;;5067044;28;20318;-85
2022/10/18 04:35:12;;;;;;;20.70;11.88;;;15.80;99.90;;;;;;5063870;28;20445;-85
2022/10/18 04:37:37;;;;;;;17.95;10.85;;;15.80;99.90;;;;;;5061535;28;20078;-86
2022/10/18 04:40:03;;;;;;;15.15;11.02;;;15.90;99.90;;;;;;5060204;28;20024;-88
2022/10/18 04:42:29;;;;;;;19.30;10.05;;;15.80;99.90;;;;;;5061229;28;20090;-85
2022/10/18 04:44:55;;;;;;;17.70;11.82;;;15.90;99.90;;;;;;5065486;28;20483;-86
2022/10/18 04:47:20;;;;;;;19.88;11.55;;;15.90;99.90;;;;;;5063879;28;20256;-86
2022/10/18 04:49:46;;;;;;;17.50;11.68;;;15.90;99.90;;;;;;5079092;28;20066;-86
2022/10/18 04:52:12;;;;;;;19.67;12.07;;;15.90;99.90;;;;;;5075043;28;20476;-85
2022/10/18 04:54:37;;;;;;;18.55;11.60;;;15.90;99.90;;;;;;5069858;28;20094;-85
2022/10/18 04:57:03;;;;;;;20.98;11.85;;;15.90;99.90;;;;;;5074303;28;20135;-85
2022/10/18 04:59:29;;;;;;;19.73;11.73;;;15.90;99.90;;;;;;5082090;28;20388;-85
2022/10/18 05:01:54;;;;;;;22.27;12.55;;;16.00;99.90;;;;;;5073080;28;20036;-85
2022/10/18 05:04:20;;;;;;;19.58;12.10;;;15.90;99.90;;;;;;5079780;28;20051;-86
2022/10/18 05:06:46;;;;;;;18.02;12.32;;;15.90;99.90;;;;;;5092977;28;20031;-86
2022/10/18 05:09:11;;;;;;;22.02;12.70;;;15.90;99.90;;;;;;5078462;28;20008;-85
2022/10/18 05:11:37;;;;;;;23.98;11.93;;;15.90;99.90;;;;;;5095897;28;20054;-86
2022/10/18 05:14:03;;;;;;;24.30;12.30;;;16.00;99.90;;;;;;5082663;28;20320;-86
2022/10/18 05:16:31;;;;;;;18.50;11.85;;;16.00;99.90;;;;;;5082044;28;20027;-86
2022/10/18 05:18:56;;;;;;;23.52;12.35;;;15.90;99.90;;;;;;5091311;28;20370;-86
2022/10/18 05:21:22;;;;;;;17.52;12.40;;;15.90;99.90;;;;;;5075181;28;20035;-86
2022/10/18 05:23:47;;;;;;;21.17;11.82;;;15.90;99.90;;;;;;5066539;28;20104;-86
2022/10/18 05:26:13;;;;;;;18.08;12.60;;;15.90;99.90;;;;;;5065491;28;20099;-86
2022/10/18 05:28:39;;;;;;;24.15;12.63;;;16.00;99.90;;;;;;5058592;28;20434;-86
2022/10/18 05:31:07;;;;;;;18.75;11.88;;;15.90;99.90;;;;;;5061650;28;20029;-85
2022/10/18 05:33:33;;;;;;;25.67;13.15;;;16.00;99.90;;;;;;5055657;28;20029;-86
2022/10/18 05:35:59;;;;;;;20.92;12.27;;;16.00;99.90;;;;;;5064357;28;20035;-85
2022/10/18 05:38:25;;;;;;;23.00;12.77;;;15.90;99.90;;;;;;5060434;28;20017;-88
2022/10/18 05:40:51;;;;;;;22.23;13.15;;;15.90;99.90;;;;;;5059667;28;20029;-88
2022/10/18 05:43:16;;;;;;;22.05;12.00;;;15.90;99.90;;;;;;5055422;28;20025;-86
2022/10/18 05:45:49;;;;;;;22.17;12.48;;;15.90;99.90;;;;;;5081974;28;20012;-86
2022/10/18 05:48:16;;;;;;;22.77;12.90;;;16.00;99.90;;;;;;5072593;28;20029;-83
2022/10/18 05:50:42;;;;;;;18.42;11.80;;;15.90;99.90;;;;;;5060341;28;20020;-82
2022/10/18 05:53:07;;;;;;;25.95;13.02;;;16.00;99.90;;;;;;5060620;28;20271;-82
2022/10/18 05:55:33;;;;;;;24.05;12.95;;;16.00;99.90;;;;;;5058337;28;20283;-82
2022/10/18 05:57:59;;;;;;;23.45;14.02;;;16.00;99.90;;;;;;5054216;28;20041;-82
2022/10/18 06:00:24;;;;;;;28.00;13.55;;;16.00;99.90;;;;;;5055109;28;20031;-83
2022/10/18 06:02:50;;;;;;;23.70;13.15;;;16.00;99.90;;;;;;5057667;28;20105;-82
2022/10/18 06:05:16;;;;;;;20.65;12.57;;;16.00;99.90;;;;;;5061197;28;20028;-83
2022/10/18 06:07:41;;;;;;;25.08;14.00;;;16.00;99.90;;;;;;5059253;28;20025;-82
2022/10/18 06:10:07;;;;;;;22.65;13.07;;;16.10;99.90;;;;;;5053463;28;20448;-82
2022/10/18 06:12:33;;;;;;;22.02;13.75;;;16.10;99.90;;;;;;5051331;28;20048;-82
2022/10/18 06:14:58;;;;;;;34.17;14.55;;;16.10;99.90;;;;;;5050633;28;20064;-82
2022/10/18 06:17:24;;;;;;;26.10;12.95;;;16.10;99.90;;;;;;5056789;28;20032;-82
2022/10/18 06:19:49;;;;;;;21.30;12.07;;;16.10;99.90;;;;;;5059716;28;20016;-82
2022/10/18 06:22:15;;;;;;;31.10;13.60;;;16.10;99.90;;;;;;5057562;28;20098;-82
2022/10/18 06:24:41;;;;;;;24.17;14.13;;;16.10;99.90;;;;;;5056001;28;20060;-82
2022/10/18 06:27:10;;;;;;;24.63;12.60;;;16.10;99.90;;;;;;5057000;28;20021;-82
2022/10/18 06:29:36;;;;;;;28.73;13.40;;;16.10;99.90;;;;;;5053739;28;20088;-82
2022/10/18 06:32:02;;;;;;;19.75;13.02;;;16.10;99.90;;;;;;5055987;28;20025;-82
2022/10/18 06:34:28;;;;;;;22.95;12.00;;;16.20;99.90;;;;;;5070598;28;133937;-82
2022/10/18 06:36:53;;;;;;;26.05;14.73;;;16.20;99.90;;;;;;5059691;28;20560;-82
2022/10/18 06:39:19;;;;;;;21.95;13.15;;;16.10;99.90;;;;;;5052544;28;20021;-82
2022/10/18 06:41:44;;;;;;;25.92;13.23;;;16.20;99.90;;;;;;5053530;28;20044;-82
2022/10/18 06:44:13;;;;;;;25.10;13.60;;;16.20;99.90;;;;;;5061955;28;20521;-82
2022/10/18 06:46:42;;;;;;;21.95;13.63;;;16.20;99.90;;;;;;5057153;28;20104;-82
2022/10/18 06:49:08;;;;;;;22.55;13.45;;;16.30;99.90;;;;;;5060698;28;20020;-82
2022/10/18 06:51:34;;;;;;;23.63;12.75;;;16.30;99.90;;;;;;5055839;28;20025;-82
2022/10/18 06:53:59;;;;;;;24.15;14.63;;;16.30;99.90;;;;;;5058084;28;20167;-82
2022/10/18 06:56:25;;;;;;;24.30;14.20;;;16.30;99.90;;;;;;5054129;28;20021;-82
2022/10/18 06:58:51;;;;;;;25.48;13.55;;;16.30;99.90;;;;;;5055378;28;20028;-82
2022/10/18 07:01:17;;;;;;;32.28;14.27;;;16.40;99.90;;;;;;5052469;28;20186;-83
2022/10/18 07:03:44;;;;;;;24.58;13.95;;;16.40;99.90;;;;;;5056905;28;20587;-82
2022/10/18 07:06:11;;;;;;;23.13;14.10;;;16.40;99.90;;;;;;5067463;28;20561;-82
2022/10/18 07:08:38;;;;;;;21.42;14.23;;;16.40;99.90;;;;;;5052065;28;20020;-82
2022/10/18 07:11:05;;;;;;;25.42;14.77;;;16.50;99.90;;;;;;5053909;28;20025;-82
2022/10/18 07:13:31;;;;;;;21.13;13.60;;;16.40;99.90;;;;;;5064018;28;20035;-83
2022/10/18 07:16:17;;;;;;;33.20;13.73;;;16.50;99.90;;;;;;5051245;28;20526;-82
2022/10/18 07:18:49;;;;;;;22.13;13.98;;;16.60;99.90;;;;;;5057405;28;20020;-82
2022/10/18 07:21:17;;;;;;;27.60;14.63;;;16.60;99.90;;;;;;5057777;28;20104;-82
2022/10/18 07:23:45;;;;;;;19.95;14.02;;;16.60;99.90;;;;;;5059784;28;20025;-82
2022/10/18 07:26:14;;;;;;;23.92;14.38;;;16.70;99.90;;;;;;5055131;28;20025;-82
2022/10/18 07:28:41;;;;;;;27.95;13.60;;;16.70;99.90;;;;;;5063922;28;20028;-82
2022/10/18 07:31:08;;;;;;;31.48;13.68;;;16.80;99.90;;;;;;5053436;28;20565;-82
2022/10/18 07:33:36;;;;;;;21.52;13.02;;;16.80;99.90;;;;;;5055218;28;20044;-82
2022/10/18 07:36:04;;;;;;;29.00;14.00;;;16.80;99.90;;;;;;5052313;28;20462;-82
2022/10/18 07:38:30;;;;;;;27.92;14.48;;;16.80;99.90;;;;;;5052546;28;20013;-82
2022/10/18 07:40:58;;;;;;;25.95;13.43;;;16.90;99.90;;;;;;5051082;28;20473;-82
2022/10/18 07:43:24;;;;;;;19.73;12.90;;;17.00;99.90;;;;;;5065724;28;20492;-82
2022/10/18 07:45:54;;;;;;;24.40;14.00;;;17.00;99.90;;;;;;5060573;28;20059;-82
2022/10/18 07:48:20;;;;;;;31.83;13.60;;;17.10;99.90;;;;;;5055580;28;20025;-82
2022/10/18 07:50:45;;;;;;;24.40;12.48;;;17.10;99.90;;;;;;5063593;28;20105;-82
2022/10/18 07:53:11;;;;;;;23.95;13.68;;;17.20;99.90;;;;;;5054093;28;20025;-82
2022/10/18 07:55:37;;;;;;;25.67;13.35;;;17.30;99.90;;;;;;5056581;28;20066;-82
2022/10/18 07:58:02;;;;;;;22.13;12.98;;;17.30;99.90;;;;;;5053040;28;20024;-82
2022/10/18 08:00:28;;;;;;;30.95;15.40;;;17.30;99.90;;;;;;5053340;28;20120;-82
2022/10/18 08:02:58;;;;;;;23.55;13.40;;;17.40;99.90;;;;;;5051389;28;20504;-82
2022/10/18 08:05:24;;;;;;;23.63;13.45;;;17.50;99.90;;;;;;5060963;28;20025;-82
2022/10/18 08:07:49;;;;;;;26.98;13.13;;;17.50;99.90;;;;;;5058942;28;20497;-82
2022/10/18 08:10:15;;;;;;;23.70;13.48;;;17.60;99.90;;;;;;5052084;28;20066;-82
2022/10/18 08:12:41;;;;;;;24.10;12.13;;;17.60;99.90;;;;;;5052026;28;20025;-82
2022/10/18 08:15:07;;;;;;;23.70;12.25;;;17.70;99.90;;;;;;5050890;28;20398;-82
2022/10/18 08:17:33;;;;;;;32.28;12.38;;;17.70;99.90;;;;;;5050352;28;20078;-82
2022/10/18 08:19:58;;;;;;;23.48;13.75;;;17.80;99.90;;;;;;5066260;28;20028;-82
2022/10/18 08:22:24;;;;;;;23.63;11.10;;;17.80;99.90;;;;;;5057173;28;20040;-82
2022/10/18 08:24:49;;;;;;;21.30;11.23;;;17.90;99.90;;;;;;5062891;28;20440;-82
2022/10/18 08:27:15;;;;;;;22.40;10.60;;;17.90;99.90;;;;;;5056431;28;20029;-82
2022/10/18 08:29:41;;;;;;;18.35;10.00;;;18.00;99.90;;;;;;5053764;28;20021;-82
2022/10/18 08:32:06;;;;;;;23.88;11.13;;;18.00;99.90;;;;;;5055448;28;20033;-82
2022/10/18 08:34:33;;;;;;;19.13;10.32;;;18.10;99.90;;;;;;5052139;28;20068;-82
2022/10/18 08:36:59;;;;;;;16.38;9.73;;;18.20;99.90;;;;;;5053074;28;20108;-82
2022/10/18 08:39:27;;;;;;;24.20;9.48;;;18.30;99.90;;;;;;5050947;28;20107;-83
2022/10/18 08:42:16;;;;;;;24.70;9.35;;;18.30;99.90;;;;;;5053455;28;20172;-82
2022/10/18 08:44:48;;;;;;;25.88;9.45;;;18.40;99.90;;;;;;5057876;28;20521;-83
2022/10/18 08:47:18;;;;;;;17.45;8.98;;;18.50;99.90;;;;;;5060549;28;20484;-82
2022/10/18 08:49:57;;;;;;;17.33;8.70;;;18.50;99.90;;;;;;5054729;28;20051;-82
2022/10/18 08:52:56;;;;;;;20.27;8.20;;;18.60;99.90;;;;;;5058411;28;20021;-82
2022/10/18 08:55:35;;;;;;;19.27;8.40;;;18.60;99.90;;;;;;5054945;28;20175;-82
2022/10/18 08:58:01;;;;;;;19.98;8.10;;;18.70;99.90;;;;;;5052498;28;20028;-82
2022/10/18 09:00:33;;;;;;;19.65;7.97;;;18.80;99.90;;;;;;5058284;28;20503;-82
2022/10/18 09:03:28;;;;;;;15.05;7.30;;;18.90;99.90;;;;;;5050999;28;20056;-82
2022/10/18 09:06:22;;;;;;;17.65;7.35;;;18.90;99.90;;;;;;5053221;28;20025;-82
2022/10/18 09:09:18;;;;;;;20.77;7.60;;;19.00;99.90;;;;;;5052348;28;20057;-82
2022/10/18 09:12:12;;;;;;;17.85;7.90;;;19.20;99.90;;;;;;5062950;28;20348;-83
2022/10/18 09:15:07;;;;;;;19.77;6.47;;;19.30;99.90;;;;;;5051113;28;20036;-82
2022/10/18 09:18:00;;;;;;;14.55;6.43;;;19.30;99.90;;;;;;5049876;28;20033;-82
2022/10/18 09:20:56;;;;;;;24.17;6.45;;;19.40;99.90;;;;;;5055743;28;20082;-83
2022/10/18 09:23:43;;;;;;;15.13;6.65;;;19.50;99.90;;;;;;5060480;28;20041;-83
2022/10/18 09:26:19;;;;;;;16.27;6.28;;;19.70;99.90;;;;;;5055494;28;20526;-83
2022/10/18 09:29:00;;;;;;;17.33;6.10;;;19.80;99.90;;;;;;5066058;28;20017;-83
2022/10/18 09:32:07;;;;;;;15.50;6.63;;;19.90;99.90;;;;;;5057357;28;20077;-83
2022/10/18 09:34:45;;;;;;;17.50;6.38;;;19.90;99.90;;;;;;5055435;28;20040;-83
2022/10/18 09:37:13;;;;;;;11.45;6.05;;;20.00;99.90;;;;;;5066113;28;20057;-83
2022/10/18 09:39:40;;;;;;;16.42;5.50;;;20.10;99.90;;;;;;5054202;28;20017;-83
2022/10/18 09:42:12;;;;;;;15.10;5.82;;;20.20;99.90;;;;;;5053848;28;20055;-83
2022/10/18 09:44:43;;;;;;;17.50;6.40;;;20.40;99.90;;;;;;5059210;28;20017;-83
2022/10/18 09:47:27;;;;;;;24.35;5.75;;;20.40;99.90;;;;;;5063207;28;20051;-83
2022/10/18 09:50:00;;;;;;;15.15;5.18;;;20.60;99.90;;;;;;5058032;28;20016;-83
2022/10/18 09:52:34;;;;;;;15.52;5.80;;;20.60;99.90;;;;;;5061515;28;20028;-82
2022/10/18 09:55:11;;;;;;;13.70;5.45;;;20.60;99.90;;;;;;5056340;28;20048;-83
2022/10/18 09:57:43;;;;;;;13.40;4.78;;;20.70;99.90;;;;;;5065916;28;20028;-83
2022/10/18 10:00:30;;;;;;;18.33;5.15;;;20.80;99.90;;;;;;5054954;28;20013;-83
2022/10/18 10:02:56;;;;;;;13.70;4.60;;;20.90;99.90;;;;;;5053822;28;20072;-83
2022/10/18 10:05:21;;;;;;;16.67;5.00;;;20.90;99.90;;;;;;5063556;28;20417;-83
2022/10/18 10:07:48;;;;;;;11.18;4.63;;;21.00;99.90;;;;;;5061524;28;20029;-83
2022/10/18 10:10:23;;;;;;;22.40;5.07;;;21.00;99.90;;;;;;5055083;28;20025;-83
2022/10/18 10:13:13;;;;;;;18.20;5.22;;;21.00;99.90;;;;;;5054133;28;20084;-83
2022/10/18 10:15:40;;;;;;;14.52;5.13;;;21.10;99.90;;;;;;5052857;28;20021;-83
2022/10/18 10:18:30;;;;;;;16.77;5.00;;;21.20;99.90;;;;;;5055510;28;20021;-83
2022/10/18 10:21:04;;;;;;;13.77;4.78;;;21.30;99.90;;;;;;5065186;28;20264;-82
2022/10/18 10:23:38;;;;;;;14.65;5.22;;;21.20;99.90;;;;;;5073735;28;20024;-81
2022/10/18 10:26:19;;;;;;;15.18;5.15;;;21.30;99.90;;;;;;5079828;28;20020;-82
2022/10/18 10:28:47;;;;;;;22.10;5.07;;;21.30;99.90;;;;;;5073712;28;20100;-81
2022/10/18 10:31:28;;;;;;;11.25;4.05;;;21.40;99.90;;;;;;5068371;28;20021;-81
2022/10/18 10:34:04;;;;;;;14.10;4.65;;;21.50;99.90;;;;;;5075390;28;20051;-81
2022/10/18 10:36:31;;;;;;;11.80;4.70;;;21.50;99.90;;;;;;5070005;28;20017;-84
2022/10/18 10:39:25;;;;;;;15.73;5.07;;;21.70;99.90;;;;;;5079812;28;20056;-81
2022/10/18 10:41:57;;;;;;;13.30;4.97;;;21.70;99.90;;;;;;5063322;28;20063;-82
2022/10/18 10:44:31;;;;;;;15.60;5.13;;;21.80;99.90;;;;;;5075179;28;20244;-83
2022/10/18 10:46:57;;;;;;;14.95;4.63;;;21.90;99.90;;;;;;5066881;28;20015;-85
2022/10/18 10:49:26;;;;;;;16.05;4.65;;;21.90;99.90;;;;;;5064224;28;20048;-82
2022/10/18 10:52:00;;;;;;;18.63;5.28;;;22.00;99.90;;;;;;5063189;28;20048;-82
2022/10/18 10:54:29;;;;;;;11.98;4.63;;;22.10;99.90;;;;;;5069571;28;20037;-83
2022/10/18 10:56:54;;;;;;;12.55;4.53;;;22.20;99.90;;;;;;5061154;28;20020;-83
2022/10/18 10:59:22;;;;;;;10.00;3.88;;;22.30;99.90;;;;;;5062550;28;20031;-83
2022/10/18 11:01:50;;;;;;;10.25;3.90;;;22.40;99.90;;;;;;5060379;28;20029;-83
2022/10/18 11:04:27;;;;;;;15.25;4.55;;;22.40;99.90;;;;;;5059157;28;20013;-83
2022/10/18 11:07:19;;;;;;;11.85;4.45;;;22.50;99.90;;;;;;5065874;28;20493;-83
2022/10/18 11:10:04;;;;;;;15.65;4.22;;;22.60;99.90;;;;;;5057252;28;20025;-83
2022/10/18 11:12:45;;;;;;;12.25;3.90;;;22.60;99.90;;;;;;5053254;28;20505;-83
2022/10/18 11:15:13;;;;;;;17.35;4.53;;;22.70;99.90;;;;;;5063902;28;20021;-83
2022/10/18 11:17:47;;;;;;;14.73;4.20;;;22.80;99.90;;;;;;5052167;28;20044;-83
2022/10/18 11:20:21;;;;;;;17.98;4.60;;;22.90;99.90;;;;;;5064422;28;20016;-83
2022/10/18 11:22:47;;;;;;;;;;;22.90;99.90;;;;;;5063761;28;20131;-83
2022/10/18 11:25:15;;;;;;;13.27;4.18;;;23.00;99.90;;;;;;5067250;28;20005;-83
2022/10/18 11:28:14;;;;;;;15.35;4.70;;;23.10;99.90;;;;;;5066885;28;20028;-83
2022/10/18 11:31:10;;;;;;;14.57;3.85;;;23.20;99.90;;;;;;5063840;28;20021;-83
2022/10/18 11:33:42;;;;;;;13.68;4.07;;;23.30;99.90;;;;;;5056795;28;20119;-83
2022/10/18 11:36:15;;;;;;;13.93;4.47;;;23.30;99.90;;;;;;5053390;28;20029;-83
2022/10/18 11:39:12;;;;;;;15.13;4.43;;;23.40;99.90;;;;;;5054128;28;20013;-83
2022/10/18 11:41:50;;;;;;;13.35;4.07;;;23.50;99.90;;;;;;5052643;28;20040;-83
2022/10/18 11:44:51;;;;;;;16.83;4.40;;;23.50;99.90;;;;;;5050573;28;20025;-83
2022/10/18 11:47:35;;;;;;;15.80;3.88;;;23.60;99.90;;;;;;5062356;28;20043;-83
2022/10/18 11:50:13;;;;;;;13.82;3.90;;;23.70;99.90;;;;;;5055867;28;20020;-83
2022/10/18 11:52:47;;;;;;;17.10;4.38;;;23.80;99.90;;;;;;5055271;28;20024;-82
2022/10/18 11:55:33;;;;;;;19.25;4.22;;;23.80;99.90;;;;;;5055021;28;20165;-83
2022/10/18 11:58:11;;;;;;;11.35;3.80;;;23.80;99.90;;;;;;5053868;28;20437;-83
2022/10/18 12:00:52;;;;;;;13.68;3.83;;;24.00;99.90;;;;;;5054985;28;20032;-83
2022/10/18 12:03:33;;;;;;;14.38;4.13;;;24.00;99.90;;;;;;5052398;28;20120;-83
2022/10/18 12:06:04;;;;;;;11.20;4.03;;;24.10;99.90;;;;;;5066652;28;20021;-83
2022/10/18 12:08:40;;;;;;;11.30;3.90;;;24.20;99.90;;;;;;5055267;28;20028;-83
2022/10/18 12:11:21;;;;;;;10.90;4.60;;;24.30;99.90;;;;;;5054329;28;20025;-83
2022/10/18 12:14:13;;;;;;;13.35;3.70;;;24.40;99.90;;;;;;5051791;28;20028;-83
2022/10/18 12:16:43;;;;;;;18.00;4.07;;;24.40;99.90;;;;;;5052399;28;20032;-84
2022/10/18 12:19:17;;;;;;;15.50;4.15;;;24.50;99.90;;;;;;5050757;28;20033;-83
2022/10/18 12:21:43;;;;;;;11.10;3.63;;;24.50;99.90;;;;;;5061737;28;20037;-83
2022/10/18 12:24:23;;;;;;;14.55;3.53;;;24.60;99.90;;;;;;5057445;28;20032;-83
2022/10/18 12:26:52;;;;;;;13.48;4.03;;;24.70;99.90;;;;;;5060299;28;20459;-83
2022/10/18 12:29:30;;;;;;;13.82;4.25;;;24.70;99.90;;;;;;5054551;28;20029;-83
2022/10/18 12:32:00;;;;;;;15.00;3.75;;;24.90;99.90;;;;;;5057425;28;20374;-83
2022/10/18 12:34:41;;;;;;;14.38;3.58;;;25.00;99.90;;;;;;5058110;28;20400;-83
2022/10/18 12:37:42;;;;;;;12.38;3.55;;;25.10;99.90;;;;;;5054783;28;20013;-83
2022/10/18 12:40:22;;;;;;;12.73;3.00;;;25.30;99.90;;;;;;5052838;28;20079;-83
2022/10/18 12:42:50;;;;;;;17.00;3.70;;;25.40;99.90;;;;;;5050767;28;20047;-83
2022/10/18 12:45:32;;;;;;;12.80;3.95;;;25.40;99.90;;;;;;5052532;28;20496;-83
2022/10/18 12:48:22;;;;;;;13.25;3.47;;;25.60;99.90;;;;;;5057790;28;20061;-83
2022/10/18 12:51:03;;;;;;;10.80;3.70;;;25.70;99.90;;;;;;5063220;28;20020;-83
2022/10/18 12:53:30;;;;;;;17.08;3.72;;;25.90;99.90;;;;;;5055036;28;20492;-83